createdAt,value
2019-03-20T00:00:19.663Z,4.80
2019-03-20T00:02:48.785Z,4.90
2019-03-20T00:05:17.231Z,4.90
2019-03-20T00:07:45.668Z,4.80
2019-03-20T00:10:14.357Z,4.80
2019-03-20T00:12:42.886Z,4.80
2019-03-20T00:15:16.702Z,4.80
2019-03-20T00:17:45.267Z,4.80
2019-03-20T00:20:14.651Z,4.80
2019-03-20T00:22:43.473Z,4.70
2019-03-20T00:25:12.544Z,4.70
2019-03-20T00:27:41.595Z,4.70
2019-03-20T00:30:17.963Z,4.70
2019-03-20T00:32:46.847Z,4.70
2019-03-20T00:35:15.414Z,4.70
2019-03-20T00:37:44.189Z,4.70
2019-03-20T00:40:16.359Z,4.70
2019-03-20T00:42:44.956Z,4.70
2019-03-20T00:45:14.915Z,4.70
2019-03-20T00:47:43.628Z,4.60
2019-03-20T00:50:14.839Z,4.60
2019-03-20T00:52:43.346Z,4.70
2019-03-20T00:55:13.484Z,4.70
2019-03-20T00:57:42.378Z,4.70
2019-03-20T01:00:14.011Z,4.70
2019-03-20T01:02:42.526Z,4.70
2019-03-20T01:05:12.854Z,4.70
2019-03-20T01:07:41.936Z,4.70
2019-03-20T01:10:18.531Z,4.70
2019-03-20T01:12:47.307Z,4.60
2019-03-20T01:15:15.897Z,4.60
2019-03-20T01:17:45.138Z,4.60
2019-03-20T01:20:20.908Z,4.50
2019-03-20T01:22:49.378Z,4.40
2019-03-20T01:25:18.560Z,4.30
2019-03-20T01:27:47.328Z,4.30
2019-03-20T01:30:33.431Z,4.40
2019-03-20T01:33:10.751Z,4.50
2019-03-20T01:35:39.422Z,4.50
2019-03-20T01:38:08.711Z,4.50
2019-03-20T01:40:39.885Z,4.50
2019-03-20T01:43:07.368Z,4.50
2019-03-20T01:45:36.060Z,4.40
2019-03-20T01:48:04.948Z,4.40
2019-03-20T01:50:33.383Z,4.40
2019-03-20T01:53:02.100Z,4.30
2019-03-20T01:55:30.805Z,4.30
2019-03-20T01:57:59.705Z,4.30
2019-03-20T02:00:28.432Z,4.20
2019-03-20T02:02:56.863Z,4.20
2019-03-20T02:05:35.199Z,4.20
2019-03-20T02:07:55.480Z,4.10
2019-03-20T02:10:24.226Z,4.00
2019-03-20T02:12:52.923Z,3.90
2019-03-20T02:15:21.622Z,3.90
2019-03-20T02:17:50.063Z,4.00
2019-03-20T02:20:20.548Z,3.90
2019-03-20T02:22:48.983Z,3.90
2019-03-20T02:25:17.479Z,3.80
2019-03-20T02:27:46.028Z,3.80
2019-03-20T02:30:16.926Z,3.90
2019-03-20T02:32:45.764Z,3.90
2019-03-20T02:35:14.404Z,3.90
2019-03-20T02:37:43.173Z,3.80
2019-03-20T02:40:15.143Z,3.80
2019-03-20T02:42:43.690Z,3.80
2019-03-20T02:45:16.110Z,3.80
2019-03-20T02:47:44.605Z,3.80
2019-03-20T02:50:14.348Z,3.80
2019-03-20T02:52:42.822Z,3.80
2019-03-20T02:55:12.052Z,3.90
2019-03-20T02:57:40.555Z,3.80
2019-03-20T03:00:14.861Z,3.80
2019-03-20T03:02:43.287Z,3.70
2019-03-20T03:05:12.390Z,3.70
2019-03-20T03:07:41.152Z,3.70
2019-03-20T03:10:11.908Z,3.70
2019-03-20T03:12:40.393Z,3.70
2019-03-20T03:15:10.953Z,3.70
2019-03-20T03:17:39.645Z,3.60
2019-03-20T03:20:11.501Z,3.60
2019-03-20T03:22:40.001Z,3.60
2019-03-20T03:25:09.899Z,3.70
2019-03-20T03:27:38.581Z,3.80
2019-03-20T03:30:16.784Z,3.70
2019-03-20T03:32:45.431Z,3.70
2019-03-20T03:35:18.274Z,3.70
2019-03-20T03:37:44.230Z,3.60
2019-03-20T03:40:17.414Z,3.60
2019-03-20T03:42:46.307Z,3.50
2019-03-20T03:45:16.003Z,3.50
2019-03-20T03:47:44.516Z,3.50
2019-03-20T03:50:13.520Z,3.50
2019-03-20T03:52:42.011Z,3.60
2019-03-20T03:55:14.408Z,3.50
2019-03-20T03:57:43.452Z,3.50
2019-03-20T04:00:19.842Z,3.50
2019-03-20T04:02:48.677Z,3.50
2019-03-20T04:05:17.511Z,3.50
2019-03-20T04:07:46.012Z,3.50
2019-03-20T04:10:20.386Z,3.40
2019-03-20T04:12:48.900Z,3.40
2019-03-20T04:15:17.598Z,3.40
2019-03-20T04:17:46.135Z,3.40
2019-03-20T04:20:18.832Z,3.30
2019-03-20T04:22:47.273Z,3.30
2019-03-20T04:25:16.127Z,3.20
2019-03-20T04:27:44.726Z,3.30
2019-03-20T04:30:17.849Z,3.30
2019-03-20T04:32:46.506Z,3.40
2019-03-20T04:35:15.439Z,3.40
2019-03-20T04:37:43.879Z,3.40
2019-03-20T04:40:18.865Z,3.30
2019-03-20T04:42:47.565Z,3.30
2019-03-20T04:45:16.644Z,3.40
2019-03-20T04:47:45.355Z,3.40
2019-03-20T04:50:16.273Z,3.30
2019-03-20T04:52:44.785Z,3.30
2019-03-20T04:55:13.309Z,3.30
2019-03-20T04:57:41.867Z,3.40
2019-03-20T05:00:21.748Z,3.40
2019-03-20T05:02:50.513Z,3.30
2019-03-20T05:05:19.090Z,3.30
2019-03-20T05:07:47.547Z,3.40
2019-03-20T05:10:17.188Z,3.50
2019-03-20T05:12:45.871Z,3.50
2019-03-20T05:15:14.863Z,3.50
2019-03-20T05:17:43.700Z,3.50
2019-03-20T05:20:14.047Z,3.60
2019-03-20T05:22:42.483Z,3.60
2019-03-20T05:25:11.074Z,3.70
2019-03-20T05:27:39.850Z,3.70
2019-03-20T05:30:13.597Z,3.80
2019-03-20T05:32:42.104Z,3.80
2019-03-20T05:35:10.987Z,3.80
2019-03-20T05:37:39.425Z,3.80
2019-03-20T05:40:12.861Z,3.80
2019-03-20T05:42:41.281Z,3.90
2019-03-20T05:45:13.081Z,4.00
2019-03-20T05:47:41.900Z,4.10
2019-03-20T05:50:13.041Z,4.10
2019-03-20T05:52:41.603Z,4.20
2019-03-20T05:55:10.111Z,4.30
2019-03-20T05:57:38.541Z,4.30
2019-03-20T06:00:17.563Z,4.40
2019-03-20T06:02:45.999Z,4.50
2019-03-20T06:05:14.943Z,4.50
2019-03-20T06:07:43.388Z,4.60
2019-03-20T06:10:16.195Z,4.60
2019-03-20T06:12:44.634Z,4.70
2019-03-20T06:15:14.416Z,4.80
2019-03-20T06:17:43.189Z,4.80
2019-03-20T06:20:13.083Z,4.90
2019-03-20T06:22:41.792Z,4.90
2019-03-20T06:25:14.449Z,4.90
2019-03-20T06:27:42.905Z,4.90
2019-03-20T06:30:20.856Z,5.00
2019-03-20T06:32:49.557Z,5.10
2019-03-20T06:35:18.052Z,5.20
2019-03-20T06:37:46.515Z,5.30
2019-03-20T06:40:16.348Z,5.30
2019-03-20T06:42:44.866Z,5.30
2019-03-20T06:45:14.736Z,5.30
2019-03-20T06:47:43.176Z,5.30
2019-03-20T06:50:22.572Z,5.40
2019-03-20T06:52:51.019Z,5.50
2019-03-20T06:55:19.526Z,5.50
2019-03-20T06:57:48.315Z,5.60
2019-03-20T07:00:40.507Z,5.60
2019-03-20T07:03:15.123Z,5.80
2019-03-20T07:05:52.532Z,5.80
2019-03-20T07:08:22.983Z,6.00
2019-03-20T07:11:08.399Z,6.10
2019-03-20T07:13:37.182Z,6.20
2019-03-20T07:16:05.959Z,6.30
2019-03-20T07:18:34.464Z,6.40
2019-03-20T07:21:02.909Z,6.60
2019-03-20T07:23:31.407Z,6.80
2019-03-20T07:25:59.859Z,7.00
2019-03-20T07:28:28.375Z,7.20
2019-03-20T07:30:56.890Z,7.40
2019-03-20T07:33:25.321Z,7.50
2019-03-20T07:35:53.903Z,7.60
2019-03-20T07:38:22.403Z,7.70
2019-03-20T07:40:50.914Z,7.80
2019-03-20T07:43:19.339Z,7.80
2019-03-20T07:45:47.871Z,7.90
2019-03-20T07:48:21.928Z,8.00
2019-03-20T07:50:46.781Z,8.00
2019-03-20T07:53:15.240Z,8.10
2019-03-20T07:55:43.743Z,8.00
2019-03-20T07:58:12.183Z,8.10
2019-03-20T08:00:40.954Z,8.10
2019-03-20T08:03:09.655Z,8.20
2019-03-20T08:05:38.102Z,8.30
2019-03-20T08:08:07.770Z,8.40
2019-03-20T08:10:36.472Z,8.50
2019-03-20T08:13:04.991Z,8.70
2019-03-20T08:15:33.421Z,8.90
2019-03-20T08:18:02.142Z,9.70
2019-03-20T08:20:31.207Z,10.90
2019-03-20T08:22:59.653Z,12.30
2019-03-20T08:25:28.348Z,13.40
2019-03-20T08:27:56.932Z,13.90
2019-03-20T08:30:25.375Z,13.90
2019-03-20T08:32:53.887Z,13.70
2019-03-20T08:35:22.719Z,13.50
2019-03-20T08:37:51.429Z,13.10
2019-03-20T08:40:20.299Z,12.60
2019-03-20T08:42:48.808Z,12.20
2019-03-20T08:45:18.304Z,11.90
2019-03-20T08:47:47.090Z,11.70
2019-03-20T08:50:18.105Z,11.60
2019-03-20T08:52:46.912Z,11.50
2019-03-20T08:55:17.036Z,11.30
2019-03-20T08:57:45.739Z,11.40
2019-03-20T09:00:16.774Z,11.40
2019-03-20T09:02:45.275Z,11.40
2019-03-20T09:05:15.752Z,11.50
2019-03-20T09:07:47.550Z,11.50
2019-03-20T09:10:20.603Z,11.60
2019-03-20T09:12:49.074Z,11.50
2019-03-20T09:15:18.781Z,11.50
2019-03-20T09:17:47.263Z,11.40
2019-03-20T09:20:16.738Z,11.40
2019-03-20T09:22:45.417Z,11.40
2019-03-20T09:25:20.759Z,11.40
2019-03-20T09:27:49.415Z,11.40
2019-03-20T09:30:21.865Z,11.40
2019-03-20T09:32:50.392Z,11.50
2019-03-20T09:35:18.901Z,11.60
2019-03-20T09:37:51.737Z,11.70
2019-03-20T09:40:19.544Z,11.90
2019-03-20T09:42:48.090Z,12.00
2019-03-20T09:45:20.328Z,12.10
2019-03-20T09:47:48.798Z,12.10
2019-03-20T09:50:18.747Z,12.00
2019-03-20T09:52:49.945Z,11.90
2019-03-20T09:55:18.159Z,11.90
2019-03-20T09:57:46.687Z,11.90
2019-03-20T10:00:28.414Z,11.90
2019-03-20T10:02:57.404Z,11.90
2019-03-20T10:05:26.113Z,12.00
2019-03-20T10:07:54.646Z,12.00
2019-03-20T10:10:23.857Z,12.20
2019-03-20T10:12:52.696Z,12.20
2019-03-20T10:15:26.151Z,12.30
2019-03-20T10:17:54.820Z,12.40
2019-03-20T10:20:23.799Z,12.50
2019-03-20T10:22:52.637Z,12.50
2019-03-20T10:25:21.099Z,12.50
2019-03-20T10:27:51.948Z,12.50
2019-03-20T10:30:27.432Z,12.60
2019-03-20T10:32:55.964Z,12.70
2019-03-20T10:35:24.654Z,12.80
2019-03-20T10:37:53.117Z,12.90
2019-03-20T10:40:22.642Z,13.00
2019-03-20T10:42:51.172Z,13.10
2019-03-20T10:45:20.170Z,13.20
2019-03-20T10:47:49.105Z,13.20
2019-03-20T10:50:21.680Z,13.20
2019-03-20T10:52:50.222Z,13.30
2019-03-20T10:55:19.042Z,13.30
2019-03-20T10:57:47.529Z,13.30
2019-03-20T11:00:18.788Z,13.30
2019-03-20T11:02:47.576Z,13.20
2019-03-20T11:05:16.951Z,13.20
2019-03-20T11:07:45.789Z,13.20
2019-03-20T11:10:20.023Z,13.20
2019-03-20T11:12:48.953Z,13.30
2019-03-20T11:15:19.299Z,13.30
2019-03-20T11:17:47.743Z,13.40
2019-03-20T11:20:20.140Z,13.60
2019-03-20T11:22:49.257Z,13.60
2019-03-20T11:25:24.858Z,13.70
2019-03-20T11:27:53.416Z,13.70
2019-03-20T11:30:30.562Z,13.70
2019-03-20T11:32:59.025Z,13.80
2019-03-20T11:35:27.716Z,13.90
2019-03-20T11:37:56.185Z,13.80
2019-03-20T11:40:32.763Z,13.70
2019-03-20T11:43:01.632Z,13.70
2019-03-20T11:45:30.349Z,13.80
2019-03-20T11:47:58.889Z,13.80
2019-03-20T11:50:41.377Z,13.80
2019-03-20T11:53:10.739Z,13.90
2019-03-20T11:55:39.444Z,14.00
2019-03-20T11:58:07.970Z,13.90
2019-03-20T12:00:36.633Z,13.90
2019-03-20T12:03:05.631Z,13.90
2019-03-20T12:05:34.156Z,13.90
2019-03-20T12:08:02.686Z,13.90
2019-03-20T12:10:33.335Z,13.80
2019-03-20T12:13:01.851Z,13.80
2019-03-20T12:15:30.293Z,13.80
2019-03-20T12:17:58.728Z,13.70
2019-03-20T12:20:27.336Z,13.70
2019-03-20T12:22:56.141Z,13.70
2019-03-20T12:25:37.771Z,13.70
2019-03-20T12:28:06.471Z,13.60
2019-03-20T12:30:38.688Z,13.50
2019-03-20T12:33:07.452Z,13.40
2019-03-20T12:35:38.550Z,13.40
2019-03-20T12:38:14.273Z,13.30
2019-03-20T12:40:37.854Z,13.30
2019-03-20T12:43:06.477Z,13.30
2019-03-20T12:45:35.979Z,13.30
2019-03-20T12:48:05.849Z,13.30
2019-03-20T12:50:34.703Z,13.30
2019-03-20T12:53:03.793Z,13.40
2019-03-20T12:55:32.631Z,13.40
2019-03-20T12:58:01.065Z,13.40
2019-03-20T13:00:29.521Z,13.40
2019-03-20T13:02:57.958Z,13.40
2019-03-20T13:05:26.421Z,13.40
2019-03-20T13:07:58.041Z,13.30
2019-03-20T13:10:26.141Z,13.30
2019-03-20T13:12:54.568Z,13.30
2019-03-20T13:15:23.659Z,13.30
2019-03-20T13:17:52.896Z,13.30
2019-03-20T13:20:21.687Z,13.20
2019-03-20T13:23:01.868Z,13.20
2019-03-20T13:25:30.397Z,13.20
2019-03-20T13:27:58.967Z,13.30
2019-03-20T13:30:36.803Z,13.20
2019-03-20T13:33:05.576Z,13.20
2019-03-20T13:35:34.021Z,13.30
2019-03-20T13:38:02.463Z,13.30
2019-03-20T13:40:31.240Z,13.30
2019-03-20T13:42:59.935Z,13.40
2019-03-20T13:45:29.060Z,13.30
2019-03-20T13:47:57.552Z,13.30
2019-03-20T13:50:26.011Z,13.30
2019-03-20T13:52:54.726Z,13.30
2019-03-20T13:55:23.163Z,13.30
2019-03-20T13:57:51.861Z,13.20
2019-03-20T14:00:25.182Z,13.20
2019-03-20T14:02:53.998Z,13.20
2019-03-20T14:05:22.857Z,13.10
2019-03-20T14:07:51.641Z,13.10
2019-03-20T14:10:27.369Z,13.10
2019-03-20T14:12:55.799Z,13.10
2019-03-20T14:15:24.499Z,13.00
2019-03-20T14:17:53.301Z,13.00
2019-03-20T14:20:23.583Z,13.00
2019-03-20T14:22:52.043Z,13.00
2019-03-20T14:25:20.920Z,13.00
2019-03-20T14:27:50.078Z,13.00
2019-03-20T14:30:29.644Z,12.90
2019-03-20T14:32:58.139Z,12.90
2019-03-20T14:35:26.911Z,12.90
2019-03-20T14:37:55.411Z,13.00
2019-03-20T14:40:35.509Z,13.00
2019-03-20T14:42:59.395Z,13.00
2019-03-20T14:45:28.048Z,12.90
2019-03-20T14:47:56.552Z,13.00
2019-03-20T14:50:29.459Z,13.00
2019-03-20T14:52:57.898Z,12.90
2019-03-20T14:55:26.705Z,13.00
2019-03-20T14:57:55.403Z,13.00
2019-03-20T15:00:28.732Z,13.00
2019-03-20T15:02:57.411Z,13.00
2019-03-20T15:05:26.387Z,13.00
2019-03-20T15:07:54.836Z,13.00
2019-03-20T15:10:26.837Z,13.00
2019-03-20T15:12:55.701Z,13.00
2019-03-20T15:15:39.007Z,13.00
2019-03-20T15:18:07.703Z,13.00
2019-03-20T15:20:36.162Z,13.00
2019-03-20T15:23:05.109Z,13.00
2019-03-20T15:25:33.631Z,12.90
2019-03-20T15:28:02.056Z,13.00
2019-03-20T15:30:30.542Z,12.90
2019-03-20T15:32:59.013Z,12.90
2019-03-20T15:35:27.464Z,12.90
2019-03-20T15:37:55.888Z,12.80
2019-03-20T15:40:28.624Z,12.80
2019-03-20T15:42:57.315Z,12.80
2019-03-20T15:45:25.759Z,12.70
2019-03-20T15:47:54.206Z,12.70
2019-03-20T15:50:24.284Z,12.70
2019-03-20T15:52:52.719Z,12.60
2019-03-20T15:55:36.322Z,12.70
2019-03-20T15:58:05.023Z,12.60
2019-03-20T16:00:33.455Z,12.60
2019-03-20T16:03:05.308Z,12.60
2019-03-20T16:05:33.747Z,12.60
2019-03-20T16:08:02.463Z,12.60
2019-03-20T16:10:31.167Z,12.50
2019-03-20T16:12:59.889Z,12.60
2019-03-20T16:15:28.319Z,12.60
2019-03-20T16:17:56.863Z,12.60
2019-03-20T16:20:25.311Z,12.60
2019-03-20T16:22:53.879Z,12.60
2019-03-20T16:25:23.348Z,12.60
2019-03-20T16:27:52.078Z,12.60
2019-03-20T16:30:25.841Z,12.60
2019-03-20T16:32:56.371Z,12.60
2019-03-20T16:35:24.563Z,12.60
2019-03-20T16:37:52.999Z,12.60
2019-03-20T16:40:31.655Z,12.70
2019-03-20T16:43:00.388Z,12.60
2019-03-20T16:45:32.885Z,12.60
2019-03-20T16:48:01.514Z,12.60
2019-03-20T16:50:29.941Z,12.60
2019-03-20T16:52:58.491Z,12.70
2019-03-20T16:55:27.291Z,12.70
2019-03-20T16:57:56.077Z,12.70
2019-03-20T17:00:34.072Z,12.70
2019-03-20T17:03:02.616Z,12.70
2019-03-20T17:05:31.881Z,12.60
2019-03-20T17:08:00.407Z,12.70
2019-03-20T17:10:31.276Z,12.60
2019-03-20T17:13:03.309Z,12.60
2019-03-20T17:15:35.092Z,12.60
2019-03-20T17:18:03.985Z,12.50
2019-03-20T17:20:32.703Z,12.40
2019-03-20T17:23:01.523Z,12.40
2019-03-20T17:25:29.991Z,12.30
2019-03-20T17:27:58.803Z,12.20
2019-03-20T17:30:29.758Z,12.10
2019-03-20T17:32:58.293Z,12.10
2019-03-20T17:35:26.807Z,12.00
2019-03-20T17:37:55.546Z,12.00
2019-03-20T17:40:25.817Z,11.90
2019-03-20T17:42:54.278Z,11.80
2019-03-20T17:45:24.279Z,11.80
2019-03-20T17:47:52.756Z,11.70
2019-03-20T17:50:29.300Z,11.60
2019-03-20T17:52:58.111Z,11.60
2019-03-20T17:55:26.989Z,11.50
2019-03-20T17:57:55.876Z,11.50
2019-03-20T18:00:33.342Z,11.40
2019-03-20T18:03:02.201Z,11.30
2019-03-20T18:05:30.721Z,11.20
2019-03-20T18:07:59.221Z,11.10
2019-03-20T18:10:28.177Z,11.10
2019-03-20T18:12:56.974Z,11.00
2019-03-20T18:15:26.208Z,11.00
2019-03-20T18:17:54.977Z,10.90
2019-03-20T18:20:23.736Z,10.80
2019-03-20T18:22:52.246Z,10.80
2019-03-20T18:25:20.831Z,10.70
2019-03-20T18:27:49.786Z,10.70
2019-03-20T18:30:31.228Z,10.60
2019-03-20T18:33:00.399Z,10.60
2019-03-20T18:35:29.201Z,10.50
2019-03-20T18:37:57.692Z,10.50
2019-03-20T18:40:27.112Z,10.40
2019-03-20T18:42:56.232Z,10.40
2019-03-20T18:45:25.893Z,10.40
2019-03-20T18:47:54.983Z,10.30
2019-03-20T18:50:24.871Z,10.20
2019-03-20T18:52:54.066Z,10.20
2019-03-20T18:55:23.262Z,10.20
2019-03-20T18:57:52.036Z,10.20
2019-03-20T19:00:30.953Z,10.10
2019-03-20T19:03:05.930Z,10.00
2019-03-20T19:05:37.577Z,10.00
2019-03-20T19:08:06.593Z,10.00
2019-03-20T19:10:35.371Z,9.90
2019-03-20T19:13:04.118Z,9.90
2019-03-20T19:15:32.885Z,9.90
2019-03-20T19:18:01.530Z,9.80
2019-03-20T19:20:30.301Z,9.80
2019-03-20T19:22:58.871Z,9.80
2019-03-20T19:25:27.798Z,9.90
2019-03-20T19:27:56.673Z,9.80
2019-03-20T19:30:28.179Z,9.70
2019-03-20T19:32:56.856Z,9.70
2019-03-20T19:35:25.601Z,9.70
2019-03-20T19:37:54.658Z,9.70
2019-03-20T19:40:23.981Z,9.70
2019-03-20T19:42:52.485Z,9.80
2019-03-20T19:45:20.933Z,9.80
2019-03-20T19:47:49.811Z,9.90
2019-03-20T19:50:20.063Z,9.90
2019-03-20T19:52:48.794Z,9.90
2019-03-20T19:55:18.057Z,9.90
2019-03-20T19:57:46.607Z,9.90
2019-03-20T20:00:25.709Z,9.90
2019-03-20T20:02:54.437Z,9.90
2019-03-20T20:05:23.577Z,9.90
2019-03-20T20:07:52.746Z,9.90
2019-03-20T20:10:21.444Z,9.80
2019-03-20T20:12:50.392Z,9.80
2019-03-20T20:15:29.229Z,9.80
2019-03-20T20:17:57.814Z,9.80
2019-03-20T20:20:31.827Z,9.80
2019-03-20T20:23:00.391Z,9.90
2019-03-20T20:25:28.958Z,9.90
2019-03-20T20:27:57.670Z,9.80
2019-03-20T20:30:26.292Z,9.80
2019-03-20T20:32:54.882Z,9.70
2019-03-20T20:35:23.752Z,9.70
2019-03-20T20:37:52.361Z,9.70
2019-03-20T20:40:22.766Z,9.70
2019-03-20T20:42:51.318Z,9.70
2019-03-20T20:45:20.065Z,9.70
2019-03-20T20:47:48.836Z,9.70
2019-03-20T20:50:18.324Z,9.70
2019-03-20T20:52:47.582Z,9.70
2019-03-20T20:55:25.172Z,9.70
2019-03-20T20:57:53.652Z,9.80
2019-03-20T21:00:26.961Z,9.80
2019-03-20T21:02:56.226Z,9.80
2019-03-20T21:05:24.904Z,9.70
2019-03-20T21:07:53.708Z,9.70
2019-03-20T21:10:24.216Z,9.60
2019-03-20T21:12:56.703Z,9.50
2019-03-20T21:15:35.221Z,9.60
2019-03-20T21:18:15.722Z,9.60
2019-03-20T21:20:45.360Z,9.60
2019-03-20T21:23:37.976Z,9.60
2019-03-20T21:26:08.993Z,9.60
2019-03-20T21:29:11.994Z,9.60
2019-03-20T21:31:43.845Z,9.60
2019-03-20T21:34:18.597Z,9.50
2019-03-20T21:36:56.359Z,9.50
2019-03-20T21:39:25.447Z,9.60
2019-03-20T21:42:15.253Z,9.50
2019-03-20T21:45:06.301Z,9.40
2019-03-20T21:47:35.033Z,9.50
2019-03-20T21:50:30.454Z,9.50
2019-03-20T21:52:59.384Z,9.60
2019-03-20T21:56:03.741Z,9.60
2019-03-20T21:58:35.185Z,9.60
2019-03-20T22:01:27.806Z,9.50
2019-03-20T22:03:56.563Z,9.50
2019-03-20T22:06:42.574Z,9.50
2019-03-20T22:09:12.733Z,9.50
2019-03-20T22:12:15.876Z,9.50
2019-03-20T22:14:47.674Z,9.40
2019-03-20T22:17:31.340Z,9.30
2019-03-20T22:20:27.243Z,9.30
2019-03-20T22:23:16.981Z,9.20
2019-03-20T22:25:54.511Z,9.20
2019-03-20T22:28:34.620Z,9.10
2019-03-20T22:31:03.080Z,9.00
2019-03-20T22:34:07.472Z,9.00
2019-03-20T22:36:36.746Z,9.00
2019-03-20T22:39:11.542Z,9.00
2019-03-20T22:41:54.894Z,8.90
2019-03-20T22:44:23.318Z,8.90
2019-03-20T22:47:28.013Z,8.90
2019-03-20T22:50:16.126Z,8.90
2019-03-20T22:53:05.716Z,8.80
2019-03-20T22:55:49.637Z,8.70
2019-03-20T22:58:24.198Z,8.70
2019-03-20T23:00:58.178Z,8.70
2019-03-20T23:03:33.034Z,8.70
2019-03-20T23:06:01.835Z,8.70
2019-03-20T23:08:30.977Z,8.70
2019-03-20T23:10:59.621Z,8.60
2019-03-20T23:13:28.591Z,8.60
2019-03-20T23:15:57.545Z,8.50
2019-03-20T23:18:26.315Z,8.40
2019-03-20T23:20:55.191Z,8.40
2019-03-20T23:23:23.636Z,8.40
2019-03-20T23:25:52.221Z,8.40
2019-03-20T23:28:20.796Z,8.30
2019-03-20T23:30:49.396Z,8.20
2019-03-20T23:33:17.999Z,8.20
2019-03-20T23:35:46.529Z,8.10
2019-03-20T23:38:15.167Z,8.10
2019-03-20T23:40:44.231Z,8.10
2019-03-20T23:43:13.624Z,8.10
2019-03-20T23:45:42.350Z,8.00
2019-03-20T23:48:33.246Z,8.00
2019-03-20T23:51:07.904Z,8.00
2019-03-20T23:53:36.708Z,7.80
2019-03-20T23:56:05.276Z,7.80
2019-03-20T23:58:33.852Z,7.90
